createdAt,value
2022-10-01T00:00:49.489Z,10.80
2022-10-01T00:03:34.441Z,10.70
2022-10-01T00:06:17.227Z,10.70
2022-10-01T00:14:06.546Z,10.70
2022-10-01T00:16:33.922Z,10.80
2022-10-01T00:19:00.669Z,10.70
2022-10-01T00:21:31.010Z,10.70
2022-10-01T00:24:00.203Z,10.70
2022-10-01T00:26:30.176Z,10.80
2022-10-01T00:29:05.385Z,10.80
2022-10-01T00:34:17.596Z,10.90
2022-10-01T00:36:44.416Z,10.90
2022-10-01T00:39:11.897Z,10.90
2022-10-01T00:41:38.827Z,10.90
2022-10-01T00:44:44.550Z,10.80
2022-10-01T00:47:32.924Z,10.70
2022-10-01T00:55:37.267Z,10.60
2022-10-01T00:58:04.988Z,10.60
2022-10-01T01:00:32.041Z,10.70
2022-10-01T01:02:58.635Z,10.70
2022-10-01T01:05:25.524Z,10.70
2022-10-01T01:07:53.407Z,10.80
2022-10-01T01:10:37.085Z,10.80
2022-10-01T01:16:16.424Z,10.70
2022-10-01T01:19:06.821Z,10.70
2022-10-01T01:21:42.018Z,10.70
2022-10-01T01:24:43.423Z,10.70
2022-10-01T01:27:23.244Z,10.70
2022-10-01T01:29:54.781Z,10.70
2022-10-01T01:32:30.259Z,10.70
2022-10-01T01:40:17.301Z,10.90
2022-10-01T01:42:46.692Z,10.90
2022-10-01T01:45:18.358Z,10.80
2022-10-01T01:47:46.225Z,10.80
2022-10-01T01:50:16.153Z,10.70
2022-10-01T01:52:42.863Z,10.70
2022-10-01T01:55:10.466Z,10.60
2022-10-01T02:00:25.853Z,10.60
2022-10-01T02:02:56.505Z,10.70
2022-10-01T02:05:31.028Z,10.70
2022-10-01T02:08:11.650Z,10.60
2022-10-01T02:11:03.971Z,10.60
2022-10-01T02:13:38.786Z,10.60
2022-10-01T02:16:18.308Z,10.60
2022-10-01T02:22:21.431Z,10.60
2022-10-01T02:24:58.227Z,10.70
2022-10-01T02:27:32.592Z,10.70
2022-10-01T02:30:07.153Z,10.70
2022-10-01T02:32:37.002Z,10.70
2022-10-01T02:35:06.462Z,10.80
2022-10-01T02:37:34.359Z,10.70
2022-10-01T02:45:16.891Z,10.50
2022-10-01T02:47:48.941Z,10.50
2022-10-01T02:50:15.228Z,10.50
2022-10-01T02:52:47.123Z,10.50
2022-10-01T02:55:23.080Z,10.40
2022-10-01T02:57:49.937Z,10.40
2022-10-01T03:00:20.539Z,10.40
2022-10-01T03:20:59.891Z,10.30
2022-10-01T03:23:26.217Z,10.30
2022-10-01T03:25:52.371Z,10.20
2022-10-01T03:28:18.581Z,10.20
2022-10-01T03:30:44.961Z,10.20
2022-10-01T03:33:11.145Z,10.20
2022-10-01T03:35:37.278Z,10.20
2022-10-01T03:41:28.393Z,10.20
2022-10-01T03:43:59.634Z,10.10
2022-10-01T03:46:26.823Z,10.10
2022-10-01T03:48:54.714Z,10.10
2022-10-01T03:51:21.070Z,10.10
2022-10-01T03:53:47.537Z,10.10
2022-10-01T03:56:14.858Z,10.10
2022-10-01T03:58:41.345Z,10.00
2022-10-01T04:06:25.953Z,10.00
2022-10-01T04:08:52.357Z,9.90
2022-10-01T04:11:18.529Z,9.80
2022-10-01T04:13:44.748Z,9.80
2022-10-01T04:16:11.410Z,9.70
2022-10-01T04:18:37.771Z,9.60
2022-10-01T04:21:04.413Z,9.50
2022-10-01T04:23:31.078Z,9.40
2022-10-01T04:31:25.426Z,9.40
2022-10-01T04:33:54.319Z,9.20
2022-10-01T04:36:20.997Z,9.10
2022-10-01T04:38:49.582Z,9.00
2022-10-01T04:41:15.912Z,8.90
2022-10-01T04:43:42.141Z,8.90
2022-10-01T04:46:08.286Z,8.80
2022-10-01T04:48:34.883Z,8.80
2022-10-01T04:56:05.590Z,8.70
2022-10-01T04:58:32.329Z,8.60
2022-10-01T05:01:01.747Z,8.60
2022-10-01T05:03:28.616Z,8.50
2022-10-01T05:05:55.005Z,8.60
2022-10-01T05:08:21.829Z,8.60
2022-10-01T05:10:48.446Z,8.60
2022-10-01T05:16:04.862Z,8.70
2022-10-01T05:18:31.668Z,8.70
2022-10-01T05:20:58.147Z,8.60
2022-10-01T05:23:24.384Z,8.60
2022-10-01T05:25:50.774Z,8.50
2022-10-01T05:28:22.089Z,8.60
2022-10-01T05:30:48.462Z,8.50
2022-10-01T05:41:04.777Z,8.50
2022-10-01T05:43:31.313Z,8.50
2022-10-01T05:46:01.379Z,8.50
2022-10-01T05:48:27.741Z,8.50
2022-10-01T05:50:54.383Z,8.50
2022-10-01T05:53:22.823Z,8.50
2022-10-01T05:55:49.063Z,8.50
2022-10-01T05:58:15.561Z,8.50
2022-10-01T06:06:04.641Z,8.60
2022-10-01T06:08:35.159Z,8.70
2022-10-01T06:11:02.434Z,8.80
2022-10-01T06:13:29.182Z,8.80
2022-10-01T06:15:56.087Z,8.90
2022-10-01T06:18:22.653Z,8.90
2022-10-01T06:20:48.889Z,9.00
2022-10-01T06:23:15.590Z,9.10
2022-10-01T06:30:49.302Z,9.20
2022-10-01T06:33:16.434Z,9.50
2022-10-01T06:35:48.382Z,9.60
2022-10-01T06:38:15.548Z,9.80
2022-10-01T06:40:42.306Z,10.00
2022-10-01T06:43:09.370Z,10.30
2022-10-01T06:45:41.863Z,10.50
2022-10-01T07:19:24.991Z,11.90
2022-10-01T07:21:51.328Z,11.90
2022-10-01T07:24:17.494Z,11.90
2022-10-01T07:26:43.726Z,12.00
2022-10-01T07:29:10.110Z,12.00
2022-10-01T07:31:36.596Z,12.10
2022-10-01T07:34:03.009Z,12.20
2022-10-01T07:56:58.548Z,12.30
2022-10-01T07:59:26.613Z,12.30
2022-10-01T08:01:53.963Z,12.30
2022-10-01T08:04:39.637Z,12.50
2022-10-01T08:07:07.515Z,12.90
2022-10-01T08:09:34.421Z,13.10
2022-10-01T08:12:01.889Z,13.30
2022-10-01T08:40:21.098Z,14.30
2022-10-01T08:43:02.062Z,14.40
2022-10-01T08:45:49.242Z,14.30
2022-10-01T08:48:53.572Z,14.30
2022-10-01T08:51:37.824Z,14.20
2022-10-01T09:15:57.361Z,14.60
2022-10-01T09:19:01.760Z,14.10
2022-10-01T09:22:10.433Z,13.80
2022-10-01T09:25:16.184Z,13.90
2022-10-01T09:27:42.818Z,13.70
2022-10-01T09:34:18.701Z,13.60
2022-10-01T09:37:13.966Z,13.70
2022-10-01T09:39:54.739Z,13.50
2022-10-01T09:42:26.954Z,13.20
2022-10-01T09:44:53.899Z,13.30
2022-10-01T09:47:24.956Z,13.10
2022-10-01T09:52:49.574Z,12.80
2022-10-01T09:55:22.502Z,12.70
2022-10-01T09:58:08.882Z,12.60
2022-10-01T10:00:37.747Z,12.60
2022-10-01T10:03:04.072Z,12.50
2022-10-01T10:05:43.627Z,12.50
2022-10-01T10:08:30.586Z,12.50
2022-10-01T10:13:52.516Z,12.50
2022-10-01T10:16:26.889Z,12.50
2022-10-01T10:19:01.465Z,12.40
2022-10-01T10:21:30.956Z,12.40
2022-10-01T10:24:05.844Z,12.50
2022-10-01T10:26:35.375Z,12.40
2022-10-01T10:29:03.981Z,12.50
2022-10-01T10:37:06.216Z,12.50
2022-10-01T10:39:38.383Z,12.40
2022-10-01T10:42:05.801Z,12.30
2022-10-01T10:44:38.075Z,12.40
2022-10-01T10:47:10.987Z,12.50
2022-10-01T10:50:02.488Z,12.60
2022-10-01T10:52:36.761Z,12.70
2022-10-01T11:11:08.282Z,12.60
2022-10-01T11:13:48.938Z,13.10
2022-10-01T11:16:29.079Z,13.20
2022-10-01T11:19:07.166Z,13.10
2022-10-01T11:21:36.398Z,13.00
2022-10-01T11:24:18.591Z,12.90
2022-10-01T11:45:22.502Z,13.50
2022-10-01T11:47:57.968Z,14.60
2022-10-01T11:50:50.491Z,14.60
2022-10-01T11:53:20.420Z,14.60
2022-10-01T11:56:14.330Z,14.40
2022-10-01T11:59:03.376Z,14.60
2022-10-01T12:17:31.804Z,14.70
2022-10-01T12:20:01.091Z,15.20
2022-10-01T12:22:31.730Z,15.10
2022-10-01T12:24:57.984Z,15.10
2022-10-01T12:27:44.388Z,15.10
2022-10-01T12:30:19.294Z,15.10
2022-10-01T12:47:27.711Z,14.90
2022-10-01T12:50:28.222Z,15.90
2022-10-01T12:53:30.922Z,16.00
2022-10-01T12:56:20.891Z,16.10
2022-10-01T12:59:05.615Z,16.10
2022-10-01T13:01:44.513Z,16.00
2022-10-01T13:23:54.723Z,15.40
2022-10-01T13:26:42.421Z,15.20
2022-10-01T13:29:27.823Z,15.00
2022-10-01T13:32:02.877Z,15.00
2022-10-01T13:34:34.578Z,14.90
2022-10-01T13:37:40.116Z,14.80
2022-10-01T14:06:36.894Z,14.40
2022-10-01T14:09:18.703Z,14.40
2022-10-01T14:12:31.125Z,14.30
2022-10-01T14:15:19.435Z,14.30
2022-10-01T14:17:49.838Z,14.30
2022-10-01T14:20:23.360Z,14.20
2022-10-01T14:28:49.009Z,14.00
2022-10-01T14:31:53.401Z,14.00
2022-10-01T14:34:50.599Z,13.90
2022-10-01T14:37:19.604Z,13.90
2022-10-01T14:39:45.914Z,13.80
2022-10-01T14:42:17.422Z,13.80
2022-10-01T14:44:47.143Z,13.80
2022-10-01T14:52:30.627Z,13.60
2022-10-01T14:54:59.273Z,13.50
2022-10-01T14:57:25.622Z,13.50
2022-10-01T14:59:52.999Z,13.50
2022-10-01T15:02:21.597Z,13.50
2022-10-01T15:04:50.031Z,13.40
2022-10-01T15:07:16.970Z,13.40
2022-10-01T15:09:45.247Z,13.30
2022-10-01T15:17:24.760Z,13.20
2022-10-01T15:19:54.225Z,13.20
2022-10-01T15:22:27.312Z,13.20
2022-10-01T15:24:58.855Z,13.20
2022-10-01T15:27:25.364Z,13.10
2022-10-01T15:29:56.475Z,13.10
2022-10-01T15:32:24.528Z,13.10
2022-10-01T15:58:20.866Z,12.90
2022-10-01T16:00:47.914Z,12.80
2022-10-01T16:03:27.115Z,12.80
2022-10-01T16:05:54.441Z,12.70
2022-10-01T16:08:32.121Z,12.60
2022-10-01T16:11:32.331Z,12.70
2022-10-01T16:30:31.724Z,12.60
2022-10-01T16:33:01.630Z,12.60
2022-10-01T16:35:31.840Z,12.60
2022-10-01T16:37:58.442Z,12.50
2022-10-01T16:40:31.592Z,12.60
2022-10-01T16:42:59.576Z,12.60
2022-10-01T16:53:24.103Z,12.40
2022-10-01T16:55:50.831Z,12.40
2022-10-01T16:58:19.370Z,12.40
2022-10-01T17:00:45.572Z,12.40
2022-10-01T17:03:20.169Z,12.40
2022-10-01T17:05:46.626Z,12.40
2022-10-01T17:08:14.455Z,12.30
2022-10-01T17:13:39.442Z,12.40
2022-10-01T17:16:06.001Z,12.40
2022-10-01T17:18:32.305Z,12.30
2022-10-01T17:20:58.809Z,12.40
2022-10-01T17:23:25.179Z,12.40
2022-10-01T17:25:51.491Z,12.40
2022-10-01T17:28:19.424Z,12.40
2022-10-01T17:30:48.282Z,12.40
2022-10-01T17:38:39.732Z,12.40
2022-10-01T17:41:07.058Z,12.40
2022-10-01T17:43:33.317Z,12.30
2022-10-01T17:46:00.736Z,12.30
2022-10-01T17:48:28.129Z,12.30
2022-10-01T17:51:06.366Z,12.30
2022-10-01T17:53:41.109Z,12.20
2022-10-01T17:59:08.807Z,12.20
2022-10-01T18:01:35.222Z,12.20
2022-10-01T18:04:02.967Z,12.20
2022-10-01T18:06:29.642Z,12.20
2022-10-01T18:08:56.802Z,12.10
2022-10-01T18:11:26.396Z,12.20
2022-10-01T18:13:52.678Z,12.20
2022-10-01T18:21:56.117Z,12.20
2022-10-01T18:24:22.398Z,12.20
2022-10-01T18:26:48.673Z,12.20
2022-10-01T18:29:24.330Z,12.10
2022-10-01T18:32:13.349Z,12.10
2022-10-01T18:34:48.938Z,12.00
2022-10-01T18:40:10.591Z,11.90
2022-10-01T18:42:48.753Z,11.90
2022-10-01T18:45:37.710Z,11.90
2022-10-01T18:48:13.392Z,11.90
2022-10-01T18:50:42.702Z,11.90
2022-10-01T18:53:18.130Z,11.80
2022-10-01T19:05:04.343Z,11.80
2022-10-01T19:07:39.666Z,11.70
2022-10-01T19:10:08.903Z,11.70
2022-10-01T19:12:38.060Z,11.60
2022-10-01T19:15:16.464Z,11.60
2022-10-01T19:18:04.097Z,11.60
2022-10-01T19:24:15.861Z,11.60
2022-10-01T19:27:05.056Z,11.60
2022-10-01T19:29:46.292Z,11.60
2022-10-01T19:32:15.873Z,11.60
2022-10-01T19:34:51.587Z,11.60
2022-10-01T19:37:28.689Z,11.60
2022-10-01T19:40:02.086Z,11.60
2022-10-01T20:03:36.522Z,11.50
2022-10-01T20:06:16.613Z,11.50
2022-10-01T20:08:55.101Z,11.50
2022-10-01T20:11:30.714Z,11.50
2022-10-01T20:14:02.674Z,11.50
2022-10-01T20:16:44.480Z,11.50
2022-10-01T20:46:39.641Z,11.70
2022-10-01T20:49:23.927Z,11.60
2022-10-01T20:51:59.581Z,11.60
2022-10-01T20:54:32.522Z,11.60
2022-10-01T20:56:58.989Z,11.70
2022-10-01T20:59:33.490Z,11.70
2022-10-01T21:02:26.539Z,11.70
2022-10-01T21:21:11.996Z,11.70
2022-10-01T21:23:44.251Z,11.70
2022-10-01T21:26:27.190Z,11.70
2022-10-01T21:29:05.929Z,11.80
2022-10-01T21:31:50.384Z,11.90
2022-10-01T21:34:19.470Z,11.90
2022-10-01T21:42:26.323Z,11.70
2022-10-01T21:45:14.421Z,11.70
2022-10-01T21:48:01.635Z,11.70
2022-10-01T21:50:43.654Z,11.60
2022-10-01T21:53:34.806Z,11.70
2022-10-01T21:56:16.287Z,11.60
2022-10-01T22:03:08.198Z,11.60
2022-10-01T22:05:56.439Z,11.60
2022-10-01T22:08:41.492Z,11.60
2022-10-01T22:11:16.418Z,11.60
2022-10-01T22:13:58.256Z,11.60
2022-10-01T22:16:30.595Z,11.60
2022-10-01T22:21:52.353Z,11.60
2022-10-01T22:24:30.275Z,11.50
2022-10-01T22:27:27.741Z,11.40
2022-10-01T22:30:01.243Z,11.50
2022-10-01T22:32:34.228Z,11.50
2022-10-01T22:35:06.477Z,11.40
2022-10-01T23:01:34.103Z,11.10
2022-10-01T23:04:21.837Z,11.20
2022-10-01T23:07:03.214Z,11.10
2022-10-01T23:09:59.681Z,11.10
2022-10-01T23:12:36.254Z,11.10
2022-10-01T23:24:09.389Z,11.00
2022-10-01T23:26:43.967Z,11.10
2022-10-01T23:29:46.474Z,11.10
2022-10-01T23:32:22.360Z,11.00
2022-10-01T23:34:55.259Z,11.00
2022-10-01T23:37:44.249Z,11.00
2022-10-01T23:40:20.426Z,10.90
2022-10-01T23:49:03.253Z,11.00
2022-10-01T23:51:44.778Z,11.00
2022-10-01T23:54:40.430Z,11.00
2022-10-01T23:57:30.465Z,11.10
